Time;durP1;ratioP1;P1;durP2;ratioP2;P2;SDS_P1;SDS_P2;PMS_P1;PMS_P2;Temp;Humidity;BMP_temperature;BMP_pressure;BME280_temperature;BME280_humidity;BME280_pressure;Samples;Min_cycle;Max_cycle;Signal;HPM_P1;HPM_P2
2021/03/24 00:00:27;;;;;;;48.40;28.63;;;8.70;69.20;;;;;;5050218;28;20033;-64
2021/03/24 00:02:55;;;;;;;49.28;29.40;;;8.70;68.40;;;;;;5047687;28;20025;-65
2021/03/24 00:05:22;;;;;;;48.78;29.42;;;8.60;68.30;;;;;;5050470;28;20498;-64
2021/03/24 00:07:48;;;;;;;46.88;30.90;;;8.60;68.30;;;;;;5065532;28;20441;-64
2021/03/24 00:10:14;;;;;;;45.20;27.77;;;8.60;68.20;;;;;;5049489;28;20033;-64
2021/03/24 00:12:40;;;;;;;45.75;29.38;;;8.60;68.30;;;;;;5048774;28;20029;-64
2021/03/24 00:15:10;;;;;;;44.70;28.85;;;8.60;68.30;;;;;;5051430;28;20059;-64
2021/03/24 00:17:36;;;;;;;47.17;26.83;;;8.50;68.20;;;;;;5049138;28;20070;-64
2021/03/24 00:20:05;;;;;;;47.70;28.73;;;8.50;68.60;;;;;;5050897;28;20556;-63
2021/03/24 00:22:31;;;;;;;47.00;28.05;;;8.50;68.10;;;;;;5047778;28;20029;-63
2021/03/24 00:24:56;;;;;;;48.58;29.90;;;8.50;68.20;;;;;;5069268;28;20056;-64
2021/03/24 00:27:22;;;;;;;47.42;27.48;;;8.40;68.60;;;;;;5048047;28;20048;-64
2021/03/24 00:29:48;;;;;;;46.70;28.13;;;8.40;68.70;;;;;;5047180;28;20022;-63
2021/03/24 00:32:14;;;;;;;50.38;29.88;;;8.40;68.40;;;;;;5049906;28;20052;-64
2021/03/24 00:34:39;;;;;;;49.95;29.25;;;8.40;68.40;;;;;;5045191;28;20035;-64
2021/03/24 00:37:05;;;;;;;47.80;29.60;;;8.30;68.80;;;;;;5064472;28;20036;-64
2021/03/24 00:39:31;;;;;;;44.70;27.90;;;8.30;68.30;;;;;;5050002;28;20041;-63
2021/03/24 00:41:56;;;;;;;45.67;27.52;;;8.20;68.80;;;;;;5047796;28;20371;-64
2021/03/24 00:44:23;;;;;;;48.75;28.08;;;8.30;68.80;;;;;;5048590;28;20094;-64
2021/03/24 00:46:49;;;;;;;51.38;29.15;;;8.30;68.80;;;;;;5049893;28;20087;-64
2021/03/24 00:49:15;;;;;;;43.58;25.50;;;8.30;68.80;;;;;;5048152;28;20037;-65
2021/03/24 00:51:41;;;;;;;46.03;28.05;;;8.20;68.70;;;;;;5045988;28;20095;-64
2021/03/24 00:54:07;;;;;;;47.42;28.83;;;8.20;68.70;;;;;;5045728;28;20025;-64
2021/03/24 00:56:32;;;;;;;50.80;28.42;;;8.20;68.40;;;;;;5061541;28;20029;-65
2021/03/24 00:58:58;;;;;;;46.28;28.70;;;8.20;68.50;;;;;;5048757;28;20077;-64
2021/03/24 01:01:23;;;;;;;46.05;27.92;;;8.20;68.40;;;;;;5063404;28;20063;-64
2021/03/24 01:03:49;;;;;;;46.40;28.45;;;8.10;68.80;;;;;;5049152;28;20029;-64
2021/03/24 01:06:14;;;;;;;45.97;28.58;;;8.10;68.70;;;;;;5048451;28;20529;-64
2021/03/24 01:08:40;;;;;;;43.55;25.08;;;8.10;68.40;;;;;;5049279;28;20472;-64
2021/03/24 01:11:06;;;;;;;47.58;27.65;;;8.00;68.90;;;;;;5048435;28;20412;-64
2021/03/24 01:13:31;;;;;;;48.30;29.65;;;8.00;68.90;;;;;;5046765;28;20483;-64
2021/03/24 01:15:57;;;;;;;47.28;28.48;;;8.10;69.10;;;;;;5046838;28;20044;-64
2021/03/24 01:18:24;;;;;;;41.90;26.70;;;8.00;68.90;;;;;;5048995;28;20087;-64
2021/03/24 01:20:50;;;;;;;46.60;28.27;;;8.10;68.90;;;;;;5048337;28;20113;-65
2021/03/24 01:23:16;;;;;;;48.05;30.35;;;8.00;69.40;;;;;;5064374;28;20053;-64
2021/03/24 01:25:42;;;;;;;51.80;27.67;;;8.00;69.60;;;;;;5042538;28;20114;-64
2021/03/24 01:28:20;;;;;;;52.58;31.30;;;8.00;69.20;;;;;;5045683;28;20067;-64
2021/03/24 01:30:46;;;;;;;46.63;27.35;;;8.00;69.10;;;;;;5041222;28;20025;-64
2021/03/24 01:33:12;;;;;;;50.38;28.23;;;8.00;69.60;;;;;;5049313;28;20040;-65
2021/03/24 01:35:39;;;;;;;51.10;28.73;;;8.00;69.10;;;;;;5047878;28;20025;-64
2021/03/24 01:38:05;;;;;;;48.17;29.60;;;8.00;68.90;;;;;;5065157;28;20151;-64
2021/03/24 01:40:35;;;;;;;49.88;31.33;;;8.00;69.00;;;;;;5047397;28;20136;-64
2021/03/24 01:43:04;;;;;;;52.53;30.40;;;7.90;69.00;;;;;;5048242;28;20171;-64
2021/03/24 01:45:30;;;;;;;49.75;28.55;;;7.90;69.50;;;;;;5039350;28;20026;-64
2021/03/24 01:47:59;;;;;;;47.42;28.23;;;7.90;68.80;;;;;;5065144;28;20039;-64
2021/03/24 01:50:35;;;;;;;47.30;26.17;;;7.80;69.20;;;;;;5048645;28;20032;-64
2021/03/24 01:53:01;;;;;;;48.45;28.23;;;7.80;69.10;;;;;;5049489;28;20158;-64
2021/03/24 01:55:28;;;;;;;49.33;28.70;;;7.80;69.10;;;;;;5037725;28;20424;-64
2021/03/24 01:57:54;;;;;;;45.03;26.67;;;7.80;69.20;;;;;;5047638;28;20017;-65
2021/03/24 02:00:31;;;;;;;46.77;27.93;;;7.80;69.20;;;;;;5046603;28;20112;-64
2021/03/24 02:02:57;;;;;;;48.85;28.35;;;7.70;69.20;;;;;;5036456;28;20490;-64
2021/03/24 02:05:23;;;;;;;47.20;28.23;;;7.70;69.10;;;;;;5055498;28;20032;-64
2021/03/24 02:08:04;;;;;;;50.63;29.20;;;7.70;69.10;;;;;;5045213;28;20083;-64
2021/03/24 02:10:34;;;;;;;47.40;29.33;;;7.70;68.80;;;;;;5039773;28;20049;-65
2021/03/24 02:13:03;;;;;;;50.70;28.58;;;7.70;69.30;;;;;;5044889;28;20071;-64
2021/03/24 02:15:35;;;;;;;50.35;30.02;;;7.70;69.40;;;;;;5038573;28;20060;-65
2021/03/24 02:18:02;;;;;;;48.67;27.97;;;7.70;69.20;;;;;;5048952;28;20345;-64
2021/03/24 02:20:42;;;;;;;53.20;28.67;;;7.60;69.60;;;;;;5047238;28;20029;-64
2021/03/24 02:23:36;;;;;;;51.00;28.60;;;7.60;69.60;;;;;;5047963;28;20029;-64
2021/03/24 02:26:11;;;;;;;49.80;28.97;;;7.60;69.60;;;;;;5048694;28;20033;-64
2021/03/24 02:28:38;;;;;;;46.17;27.33;;;7.60;69.40;;;;;;5047027;28;20025;-64
2021/03/24 02:31:04;;;;;;;51.10;29.63;;;7.60;69.40;;;;;;5037183;28;20029;-64
2021/03/24 02:33:37;;;;;;;51.75;29.63;;;7.60;68.90;;;;;;5061247;28;20029;-64
2021/03/24 02:36:06;;;;;;;49.20;29.00;;;7.60;69.40;;;;;;5059835;28;20029;-64
2021/03/24 02:38:35;;;;;;;48.65;28.00;;;7.60;68.80;;;;;;5052428;28;20527;-64
2021/03/24 02:41:02;;;;;;;50.07;29.07;;;7.50;69.20;;;;;;5052685;28;20117;-64
2021/03/24 02:43:30;;;;;;;49.20;29.43;;;7.50;69.40;;;;;;5044946;28;20448;-64
2021/03/24 02:45:58;;;;;;;54.15;30.95;;;7.50;68.80;;;;;;5046645;28;20040;-64
2021/03/24 02:48:32;;;;;;;48.40;27.02;;;7.40;69.30;;;;;;5050563;28;20025;-64
2021/03/24 02:51:00;;;;;;;50.33;28.87;;;7.50;68.80;;;;;;5052305;28;20099;-64
2021/03/24 02:53:28;;;;;;;46.43;27.50;;;7.50;68.80;;;;;;5057051;28;20538;-64
2021/03/24 02:55:57;;;;;;;42.33;25.40;;;7.40;69.30;;;;;;5047555;28;20036;-64
2021/03/24 02:58:23;;;;;;;52.17;28.30;;;7.40;69.40;;;;;;5037441;28;20487;-64
2021/03/24 03:00:49;;;;;;;49.10;27.80;;;7.40;68.80;;;;;;5050177;28;20143;-64
2021/03/24 03:03:23;;;;;;;47.50;27.33;;;7.30;69.20;;;;;;5049656;28;20523;-64
2021/03/24 03:05:50;;;;;;;49.03;28.13;;;7.30;69.20;;;;;;5040601;28;20113;-64
2021/03/24 03:08:39;;;;;;;49.23;26.20;;;7.30;69.20;;;;;;5067153;28;20124;-65
2021/03/24 03:11:15;;;;;;;52.33;29.07;;;7.30;69.30;;;;;;5049366;28;20135;-64
2021/03/24 03:14:04;;;;;;;54.50;30.77;;;7.30;69.40;;;;;;5052194;28;20025;-64
2021/03/24 03:17:12;;;;;;;54.30;26.77;;;7.30;69.60;;;;;;5050406;28;20123;-64
2021/03/24 03:19:48;;;;;;;48.35;27.88;;;7.20;69.50;;;;;;5030038;28;20053;-64
2021/03/24 03:22:25;;;;;;;53.47;29.83;;;7.20;69.50;;;;;;5050467;28;20036;-64
2021/03/24 03:24:56;;;;;;;59.37;30.70;;;7.20;69.50;;;;;;5064971;28;20022;-64
2021/03/24 03:27:26;;;;;;;50.13;29.23;;;7.20;69.90;;;;;;5039158;28;20129;-64
2021/03/24 03:29:56;;;;;;;58.00;32.47;;;7.10;70.30;;;;;;5064498;28;20029;-64
2021/03/24 03:32:24;;;;;;;55.10;29.63;;;7.20;70.00;;;;;;5049372;28;20464;-64
2021/03/24 03:34:56;;;;;;;54.30;32.43;;;7.20;70.10;;;;;;5050341;28;20056;-64
2021/03/24 03:37:25;;;;;;;60.53;32.57;;;7.20;70.50;;;;;;5041115;28;20028;-64
2021/03/24 03:39:51;;;;;;;60.13;33.83;;;7.20;70.80;;;;;;5050911;28;20033;-64
2021/03/24 03:42:19;;;;;;;57.30;33.67;;;7.20;70.60;;;;;;5050352;28;20064;-64
2021/03/24 03:44:44;;;;;;;56.83;30.03;;;7.20;71.10;;;;;;5049768;28;20190;-64
2021/03/24 03:47:13;;;;;;;58.13;32.93;;;7.20;71.00;;;;;;5049762;28;20137;-64
2021/03/24 03:49:40;;;;;;;62.40;34.73;;;7.30;70.50;;;;;;5047641;28;20024;-64
2021/03/24 03:52:12;;;;;;;55.40;32.10;;;7.20;70.20;;;;;;5047672;28;20021;-64
2021/03/24 03:54:44;;;;;;;58.03;32.97;;;7.20;70.70;;;;;;5051258;28;20040;-64
2021/03/24 03:57:19;;;;;;;58.00;33.23;;;7.20;70.60;;;;;;5035864;28;20032;-64
2021/03/24 04:00:21;;;;;;;56.77;30.97;;;7.20;70.60;;;;;;5049193;28;20112;-64
2021/03/24 04:03:02;;;;;;;57.88;33.10;;;7.20;70.20;;;;;;5044897;28;20033;-64
2021/03/24 04:05:51;;;;;;;56.23;30.10;;;7.20;70.10;;;;;;5050651;28;20095;-64
2021/03/24 04:08:21;;;;;;;57.80;33.97;;;7.10;70.50;;;;;;5054030;28;20052;-64
2021/03/24 04:10:56;;;;;;;51.70;30.37;;;7.10;70.50;;;;;;5061732;28;20049;-64
2021/03/24 04:13:25;;;;;;;54.83;31.13;;;7.10;70.40;;;;;;5050863;28;20108;-64
2021/03/24 04:15:53;;;;;;;54.23;31.47;;;7.10;70.00;;;;;;5042848;28;20045;-64
2021/03/24 04:18:27;;;;;;;59.40;31.87;;;7.10;70.10;;;;;;5036689;28;20036;-65
2021/03/24 04:20:55;;;;;;;59.57;30.90;;;7.00;70.60;;;;;;5066234;28;20120;-64
2021/03/24 04:23:27;;;;;;;54.00;30.33;;;7.10;70.60;;;;;;5045992;28;20105;-64
2021/03/24 04:26:16;;;;;;;58.53;33.33;;;7.00;70.60;;;;;;5034284;28;20494;-64
2021/03/24 04:28:46;;;;;;;59.83;33.03;;;7.00;70.80;;;;;;5048606;28;20029;-63
2021/03/24 04:31:14;;;;;;;61.13;30.57;;;7.10;70.40;;;;;;5049867;28;20025;-63
2021/03/24 04:33:39;;;;;;;56.90;31.07;;;7.00;70.80;;;;;;5047602;28;20826;-63
2021/03/24 04:36:39;;;;;;;56.67;30.60;;;7.00;70.10;;;;;;5049455;28;20124;-63
2021/03/24 04:39:35;;;;;;;62.23;32.67;;;7.00;69.90;;;;;;5040236;28;20036;-63
2021/03/24 04:42:17;;;;;;;57.37;32.63;;;7.00;70.50;;;;;;5030683;28;20467;-63
2021/03/24 04:44:47;;;;;;;54.67;28.50;;;7.00;70.40;;;;;;5055068;28;20025;-63
2021/03/24 04:47:24;;;;;;;58.83;31.53;;;6.90;70.40;;;;;;5068985;28;20102;-63
2021/03/24 04:50:00;;;;;;;54.07;30.47;;;6.90;70.40;;;;;;5062982;28;20029;-63
2021/03/24 04:52:29;;;;;;;59.83;31.60;;;6.90;70.20;;;;;;5048123;28;20029;-63
2021/03/24 04:54:59;;;;;;;55.07;31.07;;;6.90;69.80;;;;;;5050398;28;20029;-63
2021/03/24 04:57:26;;;;;;;53.33;27.30;;;6.80;70.20;;;;;;5048941;28;20040;-63
2021/03/24 05:00:00;;;;;;;59.00;31.07;;;6.80;69.60;;;;;;5049875;28;20033;-63
2021/03/24 05:02:31;;;;;;;;;;;6.80;70.20;;;;;;5038338;28;20059;-63
2021/03/24 05:05:14;;;;;;;60.73;29.10;;;6.80;70.10;;;;;;5043498;28;19908;-63
2021/03/24 05:07:46;;;;;;;61.37;30.97;;;6.80;70.00;;;;;;5045570;28;20053;-63
2021/03/24 05:10:17;;;;;;;59.33;31.90;;;6.80;69.60;;;;;;5048591;28;20744;-63
2021/03/24 05:12:49;;;;;;;54.83;31.63;;;6.70;70.10;;;;;;5041328;28;20029;-64
2021/03/24 05:15:35;;;;;;;55.43;28.53;;;6.70;70.00;;;;;;5047624;28;20147;-63
2021/03/24 05:18:03;;;;;;;55.33;28.40;;;6.70;69.80;;;;;;5050150;28;20051;-64
2021/03/24 05:20:37;;;;;;;61.63;32.27;;;6.70;70.40;;;;;;5030102;28;20044;-64
2021/03/24 05:23:08;;;;;;;58.87;31.67;;;6.60;70.30;;;;;;5030122;28;20022;-63
2021/03/24 05:25:42;;;;;;;60.63;33.23;;;6.60;70.30;;;;;;5052647;28;20039;-63
2021/03/24 05:28:19;;;;;;;56.70;32.70;;;6.70;69.90;;;;;;5049548;28;20037;-63
2021/03/24 05:31:04;;;;;;;64.77;31.87;;;6.70;70.00;;;;;;5042328;28;20028;-63
2021/03/24 05:33:37;;;;;;;58.73;29.73;;;6.70;70.20;;;;;;5047879;28;20104;-64
2021/03/24 05:36:05;;;;;;;61.90;32.13;;;6.60;70.70;;;;;;5050401;28;20120;-64
2021/03/24 05:38:43;;;;;;;61.03;31.37;;;6.70;70.80;;;;;;5047736;28;20024;-63
2021/03/24 05:41:36;;;;;;;59.60;33.00;;;6.60;70.90;;;;;;5046248;28;20090;-63
2021/03/24 05:44:10;;;;;;;58.95;29.50;;;6.60;71.00;;;;;;5044520;28;20051;-63
2021/03/24 05:47:03;;;;;;;57.67;31.23;;;6.70;71.60;;;;;;5048168;28;20036;-63
2021/03/24 05:50:02;;;;;;;60.90;29.40;;;6.60;72.00;;;;;;5049410;28;20495;-64
2021/03/24 05:53:06;;;;;;;54.63;28.50;;;6.70;72.10;;;;;;5048459;28;20059;-63
2021/03/24 05:56:13;;;;;;;54.63;29.45;;;6.70;72.30;;;;;;5042135;28;20479;-64
2021/03/24 05:58:55;;;;;;;63.17;31.40;;;6.80;72.00;;;;;;5045999;28;20412;-63
2021/03/24 06:01:50;;;;;;;59.00;32.17;;;6.80;72.50;;;;;;5046741;28;20032;-63
2021/03/24 06:04:34;;;;;;;66.80;34.00;;;6.90;72.00;;;;;;5041648;28;20061;-64
2021/03/24 06:07:25;;;;;;;59.88;32.25;;;6.90;72.00;;;;;;5045571;28;20142;-64
2021/03/24 06:10:09;;;;;;;53.93;29.37;;;7.00;71.90;;;;;;5052830;28;20047;-64
2021/03/24 06:13:02;;;;;;;53.55;30.60;;;7.00;72.40;;;;;;5052919;28;20025;-64
2021/03/24 06:15:43;;;;;;;52.67;28.98;;;7.10;71.80;;;;;;5047969;28;20140;-64
2021/03/24 06:18:14;;;;;;;55.30;30.20;;;7.20;71.80;;;;;;5050916;28;20328;-64
2021/03/24 06:21:10;;;;;;;55.73;29.27;;;7.10;72.20;;;;;;5052708;28;20304;-64
2021/03/24 06:24:01;;;;;;;58.03;30.83;;;7.20;72.20;;;;;;5049645;28;20021;-64
2021/03/24 06:26:57;;;;;;;50.87;29.00;;;7.30;71.70;;;;;;5039141;28;20463;-64
2021/03/24 06:29:34;;;;;;;51.43;30.30;;;7.40;71.50;;;;;;5042295;28;20055;-64
2021/03/24 06:32:20;;;;;;;48.30;28.10;;;7.60;70.30;;;;;;5042149;28;20051;-64
2021/03/24 06:34:55;;;;;;;53.57;29.40;;;7.80;70.00;;;;;;5047225;28;20561;-64
2021/03/24 06:37:40;;;;;;;47.70;27.27;;;7.90;69.60;;;;;;5045845;28;20029;-64
2021/03/24 06:40:23;;;;;;;45.33;26.20;;;8.10;69.00;;;;;;5052028;28;20029;-64
2021/03/24 06:43:16;;;;;;;45.60;28.77;;;8.40;68.50;;;;;;5044807;28;20032;-64
2021/03/24 06:46:03;;;;;;;44.70;27.47;;;8.70;67.70;;;;;;5046083;28;20076;-64
2021/03/24 06:48:48;;;;;;;47.58;26.30;;;8.70;68.10;;;;;;5047443;28;20023;-64
2021/03/24 06:51:35;;;;;;;47.85;28.00;;;9.00;67.60;;;;;;5037197;28;20487;-65
2021/03/24 06:54:18;;;;;;;42.45;26.73;;;9.40;65.70;;;;;;5034594;28;20024;-65
2021/03/24 06:57:15;;;;;;;46.07;27.13;;;9.40;66.30;;;;;;5032208;28;20029;-64
2021/03/24 07:00:00;;;;;;;41.03;26.48;;;9.50;66.10;;;;;;5033900;28;20377;-64
2021/03/24 07:02:53;;;;;;;47.22;30.67;;;9.90;65.60;;;;;;5040542;28;20704;-63
2021/03/24 07:05:59;;;;;;;41.88;27.17;;;10.30;64.60;;;;;;5047145;28;20024;-63
2021/03/24 07:09:02;;;;;;;43.67;29.60;;;11.10;63.50;;;;;;5050937;28;20037;-64
2021/03/24 07:11:42;;;;;;;42.25;27.70;;;11.30;63.90;;;;;;5049071;28;20564;-64
2021/03/24 07:14:14;;;;;;;41.58;27.05;;;12.40;61.50;;;;;;5048641;28;20500;-63
2021/03/24 07:16:51;;;;;;;44.17;27.45;;;14.60;55.60;;;;;;5047350;28;20036;-64
2021/03/24 07:20:08;;;;;;;42.53;28.15;;;14.70;56.40;;;;;;5065678;28;20032;-64
2021/03/24 07:23:15;;;;;;;40.40;25.98;;;16.20;52.80;;;;;;5034479;28;20060;-65
2021/03/24 07:25:44;;;;;;;48.97;32.30;;;17.60;50.10;;;;;;5048089;28;20067;-65
2021/03/24 07:28:40;;;;;;;43.15;31.52;;;18.60;48.00;;;;;;5047804;28;20048;-64
2021/03/24 07:31:28;;;;;;;43.20;31.42;;;19.40;46.50;;;;;;5048764;28;20025;-64
2021/03/24 07:34:27;;;;;;;46.17;33.78;;;20.20;42.90;;;;;;5030228;28;20183;-64
2021/03/24 07:37:26;;;;;;;41.40;31.58;;;20.60;42.10;;;;;;5044808;28;20029;-64
2021/03/24 07:40:17;;;;;;;45.10;33.38;;;21.00;40.60;;;;;;5035688;28;20018;-64
2021/03/24 07:43:38;;;;;;;44.55;32.72;;;21.30;39.80;;;;;;5046709;28;20032;-64
2021/03/24 07:46:39;;;;;;;46.20;33.55;;;21.80;38.20;;;;;;5033210;28;20398;-64
2021/03/24 07:49:32;;;;;;;42.42;31.70;;;22.20;37.90;;;;;;5049628;28;20098;-64
2021/03/24 07:52:14;;;;;;;41.50;31.70;;;23.00;37.70;;;;;;5043456;28;20034;-64
2021/03/24 07:55:01;;;;;;;40.17;32.33;;;24.60;34.50;;;;;;5039160;28;20570;-64
2021/03/24 07:58:12;;;;;;;46.63;32.08;;;24.60;35.40;;;;;;5046606;28;20058;-64
2021/03/24 08:00:50;;;;;;;44.63;31.27;;;26.00;32.20;;;;;;5023518;28;20131;-65
2021/03/24 08:03:53;;;;;;;44.03;33.65;;;26.70;31.30;;;;;;5033824;28;20024;-66
2021/03/24 08:06:38;;;;;;;47.30;33.55;;;26.80;31.70;;;;;;5034489;28;20025;-64
2021/03/24 08:09:26;;;;;;;36.80;29.48;;;27.60;31.10;;;;;;5037580;28;20033;-63
2021/03/24 08:11:59;;;;;;;41.92;33.17;;;27.60;29.90;;;;;;5049523;28;20025;-63
2021/03/24 08:14:51;;;;;;;41.50;32.63;;;27.60;30.70;;;;;;5045758;28;20045;-65
2021/03/24 08:18:04;;;;;;;42.95;32.72;;;28.10;30.20;;;;;;5032566;28;20071;-69
2021/03/24 08:21:00;;;;;;;42.33;32.83;;;28.80;29.90;;;;;;5034279;28;20049;-68
2021/03/24 08:23:35;;;;;;;39.75;31.25;;;29.20;29.30;;;;;;5035492;28;20045;-68
2021/03/24 08:26:17;;;;;;;39.38;31.80;;;29.40;29.40;;;;;;5035468;28;20049;-68
2021/03/24 08:29:06;;;;;;;43.35;33.50;;;29.90;28.80;;;;;;5036659;28;20033;-69
2021/03/24 08:31:55;;;;;;;43.85;34.97;;;30.50;28.70;;;;;;5035623;28;20031;-67
2021/03/24 08:34:26;;;;;;;46.00;35.75;;;30.80;28.30;;;;;;5026131;28;20124;-69
2021/03/24 08:37:10;;;;;;;42.88;35.22;;;31.00;27.50;;;;;;5036137;28;20071;-68
2021/03/24 08:40:07;;;;;;;44.20;36.05;;;31.20;27.30;;;;;;5051867;28;20095;-69
2021/03/24 08:42:55;;;;;;;46.40;36.88;;;31.70;27.00;;;;;;5033409;28;20534;-68
2021/03/24 08:45:24;;;;;;;41.92;34.38;;;32.00;26.80;;;;;;5028257;28;20079;-69
2021/03/24 08:47:56;;;;;;;42.17;34.72;;;32.30;26.90;;;;;;5034655;28;20032;-68
2021/03/24 08:50:32;;;;;;;44.33;36.05;;;32.70;26.70;;;;;;5035061;28;20029;-68
2021/03/24 08:53:12;;;;;;;46.15;36.92;;;33.10;26.20;;;;;;5037664;28;20096;-68
2021/03/24 08:55:49;;;;;;;40.72;33.35;;;33.40;26.00;;;;;;5033290;28;20406;-64
2021/03/24 08:58:36;;;;;;;47.25;36.95;;;33.50;25.90;;;;;;5032982;28;20036;-65
2021/03/24 09:01:42;;;;;;;40.50;34.83;;;33.60;25.70;;;;;;5029462;28;20041;-66
2021/03/24 09:04:32;;;;;;;40.63;34.40;;;33.70;25.50;;;;;;5026713;28;20087;-67
2021/03/24 09:07:26;;;;;;;40.25;33.88;;;33.80;25.80;;;;;;5029647;28;20347;-67
2021/03/24 09:10:09;;;;;;;46.50;36.30;;;33.90;25.30;;;;;;5034298;28;20036;-67
2021/03/24 09:12:47;;;;;;;39.28;32.17;;;33.80;25.50;;;;;;5054967;28;20221;-66
2021/03/24 09:15:24;;;;;;;41.67;35.15;;;34.00;25.40;;;;;;5053390;28;20138;-70
2021/03/24 09:18:20;;;;;;;35.78;30.75;;;33.90;25.80;;;;;;5030998;28;20059;-67
2021/03/24 09:21:11;;;;;;;45.70;36.33;;;33.90;25.40;;;;;;5062839;28;20032;-67
2021/03/24 09:23:46;;;;;;;38.40;32.40;;;33.80;25.20;;;;;;5033160;28;20043;-67
2021/03/24 09:26:39;;;;;;;40.95;34.58;;;33.40;25.40;;;;;;5031416;28;20488;-67
2021/03/24 09:29:24;;;;;;;41.47;36.00;;;31.90;26.10;;;;;;5032684;28;20109;-67
2021/03/24 09:32:08;;;;;;;45.22;37.22;;;31.00;26.80;;;;;;5030696;28;20471;-67
2021/03/24 09:35:08;;;;;;;47.97;37.40;;;30.30;26.90;;;;;;5035441;28;20022;-67
2021/03/24 09:37:42;;;;;;;46.17;34.42;;;29.70;27.70;;;;;;5030796;28;20040;-67
2021/03/24 09:40:12;;;;;;;42.85;32.45;;;29.20;28.00;;;;;;5051907;28;20052;-67
2021/03/24 09:42:46;;;;;;;44.33;33.42;;;28.90;28.30;;;;;;5052859;28;20036;-68
2021/03/24 09:45:12;;;;;;;42.05;33.65;;;28.00;28.70;;;;;;5031659;28;20036;-69
2021/03/24 09:48:02;;;;;;;43.00;34.67;;;27.30;29.50;;;;;;5031220;28;20749;-68
2021/03/24 09:50:43;;;;;;;49.00;37.42;;;26.70;30.00;;;;;;5031493;28;20032;-67
2021/03/24 09:53:17;;;;;;;50.50;36.33;;;26.50;30.30;;;;;;5037670;28;20029;-68
2021/03/24 09:56:02;;;;;;;46.90;35.85;;;26.40;30.30;;;;;;5048246;28;21203;-69
2021/03/24 09:58:56;;;;;;;48.97;37.58;;;26.50;30.80;;;;;;5034128;28;20033;-65
2021/03/24 10:01:29;;;;;;;;;;;26.70;30.40;;;;;;5032706;28;20028;-67
2021/03/24 10:04:11;;;;;;;43.53;34.08;;;26.80;29.90;;;;;;5037268;28;20145;-68
2021/03/24 10:06:48;;;;;;;43.22;33.22;;;26.80;30.10;;;;;;5046174;28;20029;-65
2021/03/24 10:09:34;;;;;;;48.35;35.85;;;26.90;30.40;;;;;;5052791;28;20036;-68
2021/03/24 10:12:03;;;;;;;43.72;31.65;;;26.80;30.80;;;;;;5035108;28;20091;-68
2021/03/24 10:14:35;;;;;;;44.15;31.35;;;27.40;29.60;;;;;;5049957;28;20058;-68
2021/03/24 10:17:04;;;;;;;46.30;32.75;;;27.20;29.80;;;;;;5042457;28;20489;-64
2021/03/24 10:19:34;;;;;;;43.78;31.00;;;26.80;30.00;;;;;;5039578;28;20422;-65
2021/03/24 10:22:18;;;;;;;38.38;28.42;;;27.30;29.80;;;;;;5044737;28;20105;-65
2021/03/24 10:24:48;;;;;;;40.30;30.98;;;27.20;30.30;;;;;;5058121;28;20021;-65
2021/03/24 10:27:18;;;;;;;40.42;31.38;;;28.80;28.20;;;;;;5040249;28;20036;-65
2021/03/24 10:29:50;;;;;;;40.88;28.55;;;30.20;28.20;;;;;;5027802;28;20035;-64
2021/03/24 10:32:25;;;;;;;40.17;29.38;;;29.70;28.30;;;;;;5043786;28;20040;-64
2021/03/24 10:34:59;;;;;;;36.88;28.55;;;30.60;27.60;;;;;;5049975;28;20025;-64
2021/03/24 10:37:44;;;;;;;39.20;28.38;;;31.00;27.10;;;;;;5061664;28;20037;-64
2021/03/24 10:40:23;;;;;;;37.70;27.80;;;31.60;26.70;;;;;;5038875;28;20380;-64
2021/03/24 10:43:07;;;;;;;42.25;30.25;;;32.60;26.30;;;;;;5043283;28;20025;-65
2021/03/24 10:45:44;;;;;;;37.53;28.80;;;34.00;25.10;;;;;;5035073;28;20538;-65
2021/03/24 10:48:28;;;;;;;40.60;28.27;;;35.30;24.70;;;;;;5042335;28;20104;-65
2021/03/24 10:51:17;;;;;;;31.20;24.55;;;35.40;25.20;;;;;;5042711;28;20423;-65
2021/03/24 10:53:43;;;;;;;32.95;24.92;;;36.40;23.50;;;;;;5048947;28;20064;-65
2021/03/24 10:56:26;;;;;;;37.15;28.90;;;36.30;24.10;;;;;;5057659;28;20072;-64
2021/03/24 10:58:58;;;;;;;30.13;23.75;;;35.50;23.70;;;;;;5041517;28;20029;-64
2021/03/24 11:01:56;;;;;;;33.13;26.00;;;34.10;24.80;;;;;;5068269;28;20072;-64
2021/03/24 11:04:36;;;;;;;35.67;27.23;;;32.90;25.00;;;;;;5046119;28;20226;-64
2021/03/24 11:07:12;;;;;;;30.58;25.48;;;31.70;25.50;;;;;;5044827;28;20051;-65
2021/03/24 11:09:52;;;;;;;33.05;24.63;;;31.80;25.60;;;;;;5046170;28;20140;-65
2021/03/24 11:12:23;;;;;;;33.55;24.23;;;32.30;25.40;;;;;;5040321;28;20104;-65
2021/03/24 11:15:04;;;;;;;31.67;23.73;;;32.70;25.00;;;;;;5044058;28;20042;-65
2021/03/24 11:17:36;;;;;;;33.40;25.88;;;32.80;25.70;;;;;;5040225;28;20530;-65
2021/03/24 11:20:43;;;;;;;31.95;23.27;;;33.50;25.30;;;;;;5047642;28;20098;-63
2021/03/24 11:23:19;;;;;;;30.48;22.25;;;34.80;24.30;;;;;;5036633;28;20045;-64
2021/03/24 11:25:56;;;;;;;31.23;21.92;;;35.40;23.70;;;;;;5042506;28;20695;-64
2021/03/24 11:28:31;;;;;;;33.17;22.60;;;35.60;23.40;;;;;;5050784;28;20497;-64
2021/03/24 11:31:15;;;;;;;28.13;22.48;;;35.40;23.90;;;;;;5046982;28;20029;-64
2021/03/24 11:33:47;;;;;;;29.33;22.70;;;35.50;23.50;;;;;;5046712;28;20431;-65
2021/03/24 11:36:19;;;;;;;;;;;35.40;23.60;;;;;;5045758;28;20124;-65
2021/03/24 11:39:33;;;;;;;30.60;22.90;;;35.50;23.50;;;;;;5046729;28;19923;-65
2021/03/24 11:42:14;;;;;;;33.08;20.80;;;35.40;23.80;;;;;;5023372;28;20044;-65
2021/03/24 11:44:41;;;;;;;28.55;19.60;;;35.70;23.70;;;;;;5012451;28;20030;-65
2021/03/24 11:47:39;;;;;;;25.13;18.95;;;34.80;23.40;;;;;;5039626;28;20082;-64
2021/03/24 11:50:25;;;;;;;27.40;20.33;;;32.90;24.20;;;;;;5023460;28;20385;-64
2021/03/24 11:53:09;;;;;;;32.70;23.90;;;31.10;25.00;;;;;;5047545;28;20036;-65
2021/03/24 11:56:06;;;;;;;24.60;18.25;;;29.40;26.20;;;;;;5050073;28;20132;-65
2021/03/24 11:58:45;;;;;;;26.83;18.63;;;28.10;27.30;;;;;;5049819;28;20056;-64
2021/03/24 12:01:17;;;;;;;29.38;21.38;;;27.00;28.10;;;;;;5049499;28;20040;-64
2021/03/24 12:03:50;;;;;;;32.63;20.57;;;26.00;29.00;;;;;;5051184;28;20028;-64
2021/03/24 12:06:52;;;;;;;30.00;21.25;;;25.40;29.70;;;;;;5050097;28;20063;-65
2021/03/24 12:09:23;;;;;;;28.15;20.20;;;24.90;30.00;;;;;;5050012;28;20090;-64
2021/03/24 12:11:49;;;;;;;29.90;20.55;;;24.40;30.50;;;;;;5046609;28;20022;-64
2021/03/24 12:14:25;;;;;;;31.25;19.10;;;23.90;31.20;;;;;;5057950;28;20071;-63
2021/03/24 12:16:57;;;;;;;28.40;19.63;;;23.30;31.70;;;;;;5035366;28;20465;-63
2021/03/24 12:19:26;;;;;;;29.92;19.92;;;22.90;33.10;;;;;;5050004;28;20071;-64
2021/03/24 12:21:58;;;;;;;33.25;20.60;;;22.70;33.00;;;;;;5049409;28;20108;-64
2021/03/24 12:24:24;;;;;;;28.88;20.25;;;22.30;33.60;;;;;;5050531;28;20387;-63
2021/03/24 12:26:49;;;;;;;31.58;22.33;;;22.00;34.50;;;;;;5042260;28;20112;-63
2021/03/24 12:29:26;;;;;;;33.10;22.33;;;22.00;35.20;;;;;;5041384;28;20225;-64
2021/03/24 12:32:07;;;;;;;29.80;20.20;;;22.00;34.90;;;;;;5048037;28;20037;-63
2021/03/24 12:34:41;;;;;;;31.00;21.40;;;22.10;34.70;;;;;;5044872;28;20036;-64
2021/03/24 12:37:22;;;;;;;29.08;20.45;;;22.00;35.20;;;;;;5045501;28;20031;-64
2021/03/24 12:39:50;;;;;;;27.67;19.40;;;22.40;34.30;;;;;;5038890;28;20548;-64
2021/03/24 12:42:26;;;;;;;30.52;20.67;;;22.40;34.10;;;;;;5059179;28;20052;-64
2021/03/24 12:44:52;;;;;;;25.20;17.98;;;22.40;34.20;;;;;;5058791;28;20132;-64
2021/03/24 12:47:38;;;;;;;27.25;19.33;;;22.20;34.40;;;;;;5040318;28;20124;-65
2021/03/24 12:50:09;;;;;;;31.10;19.67;;;22.30;34.40;;;;;;5048388;28;20682;-64
2021/03/24 12:52:46;;;;;;;26.95;19.10;;;22.30;34.50;;;;;;5047841;28;20381;-64
2021/03/24 12:55:12;;;;;;;28.55;18.67;;;22.40;35.00;;;;;;5035653;28;20025;-64
2021/03/24 12:57:43;;;;;;;31.02;21.15;;;22.60;34.10;;;;;;5036460;28;20041;-64
2021/03/24 13:00:22;;;;;;;32.42;21.42;;;22.50;34.80;;;;;;5033761;28;20048;-64
2021/03/24 13:03:21;;;;;;;31.50;20.10;;;22.30;35.30;;;;;;5044473;28;20027;-64
2021/03/24 13:05:46;;;;;;;26.73;17.40;;;22.40;34.90;;;;;;5036793;28;20471;-63
2021/03/24 13:08:21;;;;;;;28.83;18.17;;;22.40;34.30;;;;;;5060090;28;20033;-64
2021/03/24 13:10:49;;;;;;;29.08;19.90;;;22.40;34.60;;;;;;5044760;28;20498;-64
2021/03/24 13:13:40;;;;;;;31.08;21.08;;;22.30;35.10;;;;;;5042202;28;20044;-64
2021/03/24 13:16:31;;;;;;;32.60;22.17;;;22.10;35.60;;;;;;5056618;28;20056;-65
2021/03/24 13:19:20;;;;;;;32.15;21.65;;;21.90;36.00;;;;;;5046415;28;20040;-63
2021/03/24 13:21:46;;;;;;;32.28;21.00;;;21.90;35.90;;;;;;5039077;28;20033;-64
2021/03/24 13:24:36;;;;;;;31.23;20.52;;;21.90;35.40;;;;;;5061180;28;20438;-63
2021/03/24 13:27:25;;;;;;;27.55;18.60;;;21.70;36.00;;;;;;5046024;28;20033;-65